sensor_id;sensor_type;location;lat;lon;timestamp;P1;P2;P0
46573;PMS5003;32299;53.366;-1.544;2022-07-09T00:00:11;10;10;
46573;PMS5003;32299;53.366;-1.544;2022-07-09T00:02:38;10;10;
46573;PMS5003;32299;53.366;-1.544;2022-07-09T00:05:06;12;9;
46573;PMS5003;32299;53.366;-1.544;2022-07-09T00:07:33;10;10;
46573;PMS5003;32299;53.366;-1.544;2022-07-09T00:10:00;11;10;
46573;PMS5003;32299;53.366;-1.544;2022-07-09T00:12:27;14;11;
46573;PMS5003;32299;53.366;-1.544;2022-07-09T00:14:54;13;12;
46573;PMS5003;32299;53.366;-1.544;2022-07-09T00:17:21;12;11;
46573;PMS5003;32299;53.366;-1.544;2022-07-09T00:19:49;12;11;
46573;PMS5003;32299;53.366;-1.544;2022-07-09T00:22:17;21;8;
46573;PMS5003;32299;53.366;-1.544;2022-07-09T00:24:44;11;11;
46573;PMS5003;32299;53.366;-1.544;2022-07-09T00:27:11;13;12;
46573;PMS5003;32299;53.366;-1.544;2022-07-09T00:29:39;13;11;
46573;PMS5003;32299;53.366;-1.544;2022-07-09T00:32:07;10;9;
46573;PMS5003;32299;53.366;-1.544;2022-07-09T00:34:35;12;12;
46573;PMS5003;32299;53.366;-1.544;2022-07-09T00:37:02;13;12;
46573;PMS5003;32299;53.366;-1.544;2022-07-09T00:39:29;9;8;
46573;PMS5003;32299;53.366;-1.544;2022-07-09T00:42:04;10;10;
46573;PMS5003;32299;53.366;-1.544;2022-07-09T00:44:32;14;13;
46573;PMS5003;32299;53.366;-1.544;2022-07-09T00:47:00;9;9;
46573;PMS5003;32299;53.366;-1.544;2022-07-09T00:49:28;11;11;
46573;PMS5003;32299;53.366;-1.544;2022-07-09T00:51:56;11;10;
46573;PMS5003;32299;53.366;-1.544;2022-07-09T00:54:24;8;8;
46573;PMS5003;32299;53.366;-1.544;2022-07-09T00:56:52;10;10;
46573;PMS5003;32299;53.366;-1.544;2022-07-09T00:59:20;8;8;
46573;PMS5003;32299;53.366;-1.544;2022-07-09T01:01:48;11;9;
46573;PMS5003;32299;53.366;-1.544;2022-07-09T01:04:17;9;9;
46573;PMS5003;32299;53.366;-1.544;2022-07-09T01:06:44;12;11;
46573;PMS5003;32299;53.366;-1.544;2022-07-09T01:09:11;12;12;
46573;PMS5003;32299;53.366;-1.544;2022-07-09T01:11:38;15;11;
46573;PMS5003;32299;53.366;-1.544;2022-07-09T01:14:06;8;8;
46573;PMS5003;32299;53.366;-1.544;2022-07-09T01:16:35;15;13;
46573;PMS5003;32299;53.366;-1.544;2022-07-09T01:19:02;9;7;
46573;PMS5003;32299;53.366;-1.544;2022-07-09T01:21:30;9;8;
46573;PMS5003;32299;53.366;-1.544;2022-07-09T01:23:57;8;8;
46573;PMS5003;32299;53.366;-1.544;2022-07-09T01:26:24;11;9;
46573;PMS5003;32299;53.366;-1.544;2022-07-09T01:28:51;8;8;
46573;PMS5003;32299;53.366;-1.544;2022-07-09T01:31:23;8;7;
46573;PMS5003;32299;53.366;-1.544;2022-07-09T01:33:51;8;8;
46573;PMS5003;32299;53.366;-1.544;2022-07-09T01:36:19;11;6;
46573;PMS5003;32299;53.366;-1.544;2022-07-09T01:38:46;6;6;
46573;PMS5003;32299;53.366;-1.544;2022-07-09T01:41:13;7;7;
46573;PMS5003;32299;53.366;-1.544;2022-07-09T01:43:47;7;7;
46573;PMS5003;32299;53.366;-1.544;2022-07-09T01:46:14;3;3;
46573;PMS5003;32299;53.366;-1.544;2022-07-09T01:48:42;7;7;
46573;PMS5003;32299;53.366;-1.544;2022-07-09T01:51:09;7;7;
46573;PMS5003;32299;53.366;-1.544;2022-07-09T01:53:36;5;4;
46573;PMS5003;32299;53.366;-1.544;2022-07-09T01:56:05;7;7;
46573;PMS5003;32299;53.366;-1.544;2022-07-09T01:58:33;4;4;
46573;PMS5003;32299;53.366;-1.544;2022-07-09T02:01:01;6;4;
46573;PMS5003;32299;53.366;-1.544;2022-07-09T02:03:29;5;5;
46573;PMS5003;32299;53.366;-1.544;2022-07-09T02:05:57;6;6;
46573;PMS5003;32299;53.366;-1.544;2022-07-09T02:08:24;4;4;
46573;PMS5003;32299;53.366;-1.544;2022-07-09T02:10:51;7;6;
46573;PMS5003;32299;53.366;-1.544;2022-07-09T02:13:18;15;5;
46573;PMS5003;32299;53.366;-1.544;2022-07-09T02:15:45;8;7;
46573;PMS5003;32299;53.366;-1.544;2022-07-09T02:18:12;5;5;
46573;PMS5003;32299;53.366;-1.544;2022-07-09T02:20:40;4;4;
46573;PMS5003;32299;53.366;-1.544;2022-07-09T02:23:08;3;3;
46573;PMS5003;32299;53.366;-1.544;2022-07-09T02:25:36;2;2;
46573;PMS5003;32299;53.366;-1.544;2022-07-09T02:28:03;5;4;
46573;PMS5003;32299;53.366;-1.544;2022-07-09T02:30:31;2;2;
46573;PMS5003;32299;53.366;-1.544;2022-07-09T02:32:59;4;4;
46573;PMS5003;32299;53.366;-1.544;2022-07-09T02:35:27;4;4;
46573;PMS5003;32299;53.366;-1.544;2022-07-09T02:37:59;3;3;
46573;PMS5003;32299;53.366;-1.544;2022-07-09T02:40:26;3;3;
46573;PMS5003;32299;53.366;-1.544;2022-07-09T02:42:53;2;2;
46573;PMS5003;32299;53.366;-1.544;2022-07-09T02:45:20;1;1;
46573;PMS5003;32299;53.366;-1.544;2022-07-09T02:47:49;2;2;
46573;PMS5003;32299;53.366;-1.544;2022-07-09T02:50:16;2;2;
46573;PMS5003;32299;53.366;-1.544;2022-07-09T02:52:48;2;2;
46573;PMS5003;32299;53.366;-1.544;2022-07-09T02:55:16;1;1;
46573;PMS5003;32299;53.366;-1.544;2022-07-09T02:57:44;3;3;
46573;PMS5003;32299;53.366;-1.544;2022-07-09T03:00:12;2;2;
46573;PMS5003;32299;53.366;-1.544;2022-07-09T03:02:40;1;1;
46573;PMS5003;32299;53.366;-1.544;2022-07-09T03:05:08;2;2;
46573;PMS5003;32299;53.366;-1.544;2022-07-09T03:07:35;2;1;
46573;PMS5003;32299;53.366;-1.544;2022-07-09T03:10:02;1;1;
46573;PMS5003;32299;53.366;-1.544;2022-07-09T03:12:30;1;1;
46573;PMS5003;32299;53.366;-1.544;2022-07-09T03:14:57;1;1;
46573;PMS5003;32299;53.366;-1.544;2022-07-09T03:17:24;0;0;
46573;PMS5003;32299;53.366;-1.544;2022-07-09T03:19:51;1;1;
46573;PMS5003;32299;53.366;-1.544;2022-07-09T03:22:19;1;1;
46573;PMS5003;32299;53.366;-1.544;2022-07-09T03:24:52;0;0;
46573;PMS5003;32299;53.366;-1.544;2022-07-09T03:27:24;0;0;
46573;PMS5003;32299;53.366;-1.544;2022-07-09T03:29:51;0;0;
46573;PMS5003;32299;53.366;-1.544;2022-07-09T03:32:18;0;0;
46573;PMS5003;32299;53.366;-1.544;2022-07-09T03:34:45;0;0;
46573;PMS5003;32299;53.366;-1.544;2022-07-09T03:37:12;0;0;
46573;PMS5003;32299;53.366;-1.544;2022-07-09T03:39:40;0;0;
46573;PMS5003;32299;53.366;-1.544;2022-07-09T03:42:08;0;0;
46573;PMS5003;32299;53.366;-1.544;2022-07-09T03:44:35;0;0;
46573;PMS5003;32299;53.366;-1.544;2022-07-09T03:47:03;0;0;
46573;PMS5003;32299;53.366;-1.544;2022-07-09T03:49:31;0;0;
46573;PMS5003;32299;53.366;-1.544;2022-07-09T03:51:59;0;0;
46573;PMS5003;32299;53.366;-1.544;2022-07-09T03:54:27;0;0;
46573;PMS5003;32299;53.366;-1.544;2022-07-09T03:56:54;0;0;
46573;PMS5003;32299;53.366;-1.544;2022-07-09T03:59:22;0;0;
46573;PMS5003;32299;53.366;-1.544;2022-07-09T04:01:49;0;0;
46573;PMS5003;32299;53.366;-1.544;2022-07-09T04:04:17;0;0;
46573;PMS5003;32299;53.366;-1.544;2022-07-09T04:06:45;1;1;
46573;PMS5003;32299;53.366;-1.544;2022-07-09T04:09:12;0;0;
46573;PMS5003;32299;53.366;-1.544;2022-07-09T04:11:40;0;0;
46573;PMS5003;32299;53.366;-1.544;2022-07-09T04:14:07;0;0;
46573;PMS5003;32299;53.366;-1.544;2022-07-09T04:16:34;0;0;
46573;PMS5003;32299;53.366;-1.544;2022-07-09T04:19:01;0;0;
46573;PMS5003;32299;53.366;-1.544;2022-07-09T04:21:28;0;0;
46573;PMS5003;32299;53.366;-1.544;2022-07-09T04:23:55;0;0;
46573;PMS5003;32299;53.366;-1.544;2022-07-09T04:26:22;0;0;
46573;PMS5003;32299;53.366;-1.544;2022-07-09T04:28:49;0;0;
46573;PMS5003;32299;53.366;-1.544;2022-07-09T04:31:16;0;0;
46573;PMS5003;32299;53.366;-1.544;2022-07-09T04:33:44;0;0;
46573;PMS5003;32299;53.366;-1.544;2022-07-09T04:36:11;0;0;
46573;PMS5003;32299;53.366;-1.544;2022-07-09T04:38:38;0;0;
46573;PMS5003;32299;53.366;-1.544;2022-07-09T04:41:06;0;0;
46573;PMS5003;32299;53.366;-1.544;2022-07-09T04:43:33;0;0;
46573;PMS5003;32299;53.366;-1.544;2022-07-09T04:46:01;0;0;
46573;PMS5003;32299;53.366;-1.544;2022-07-09T04:48:28;0;0;
46573;PMS5003;32299;53.366;-1.544;2022-07-09T04:50:55;0;0;
46573;PMS5003;32299;53.366;-1.544;2022-07-09T04:53:23;0;0;
46573;PMS5003;32299;53.366;-1.544;2022-07-09T04:55:50;0;0;
46573;PMS5003;32299;53.366;-1.544;2022-07-09T04:58:17;0;0;
46573;PMS5003;32299;53.366;-1.544;2022-07-09T05:00:44;0;0;
46573;PMS5003;32299;53.366;-1.544;2022-07-09T05:03:11;0;0;
46573;PMS5003;32299;53.366;-1.544;2022-07-09T05:05:38;2;0;
46573;PMS5003;32299;53.366;-1.544;2022-07-09T05:08:05;0;0;
46573;PMS5003;32299;53.366;-1.544;2022-07-09T05:10:32;0;0;
46573;PMS5003;32299;53.366;-1.544;2022-07-09T05:12:59;0;0;
46573;PMS5003;32299;53.366;-1.544;2022-07-09T05:15:26;0;0;
46573;PMS5003;32299;53.366;-1.544;2022-07-09T05:17:53;0;0;
46573;PMS5003;32299;53.366;-1.544;2022-07-09T05:20:20;0;0;
46573;PMS5003;32299;53.366;-1.544;2022-07-09T05:22:47;0;0;
46573;PMS5003;32299;53.366;-1.544;2022-07-09T05:25:14;0;0;
46573;PMS5003;32299;53.366;-1.544;2022-07-09T05:27:42;0;0;
46573;PMS5003;32299;53.366;-1.544;2022-07-09T05:30:09;0;0;
46573;PMS5003;32299;53.366;-1.544;2022-07-09T05:32:39;0;0;
46573;PMS5003;32299;53.366;-1.544;2022-07-09T05:35:07;0;0;
46573;PMS5003;32299;53.366;-1.544;2022-07-09T05:37:40;1;1;
46573;PMS5003;32299;53.366;-1.544;2022-07-09T05:40:08;1;1;
46573;PMS5003;32299;53.366;-1.544;2022-07-09T05:42:36;1;1;
46573;PMS5003;32299;53.366;-1.544;2022-07-09T05:45:03;0;0;
46573;PMS5003;32299;53.366;-1.544;2022-07-09T05:47:32;1;0;
46573;PMS5003;32299;53.366;-1.544;2022-07-09T05:49:59;0;0;
46573;PMS5003;32299;53.366;-1.544;2022-07-09T05:52:26;0;0;
46573;PMS5003;32299;53.366;-1.544;2022-07-09T05:54:57;0;0;
46573;PMS5003;32299;53.366;-1.544;2022-07-09T05:57:25;0;0;
46573;PMS5003;32299;53.366;-1.544;2022-07-09T05:59:52;0;0;
46573;PMS5003;32299;53.366;-1.544;2022-07-09T06:02:20;1;0;
46573;PMS5003;32299;53.366;-1.544;2022-07-09T06:04:47;0;0;
46573;PMS5003;32299;53.366;-1.544;2022-07-09T06:07:14;0;0;
46573;PMS5003;32299;53.366;-1.544;2022-07-09T06:09:42;0;0;
46573;PMS5003;32299;53.366;-1.544;2022-07-09T06:12:09;0;0;
46573;PMS5003;32299;53.366;-1.544;2022-07-09T06:14:36;1;1;
46573;PMS5003;32299;53.366;-1.544;2022-07-09T06:17:08;0;0;
46573;PMS5003;32299;53.366;-1.544;2022-07-09T06:19:41;1;0;
46573;PMS5003;32299;53.366;-1.544;2022-07-09T06:22:08;0;0;
46573;PMS5003;32299;53.366;-1.544;2022-07-09T06:24:46;0;0;
46573;PMS5003;32299;53.366;-1.544;2022-07-09T06:27:22;2;1;
46573;PMS5003;32299;53.366;-1.544;2022-07-09T06:29:51;0;0;
46573;PMS5003;32299;53.366;-1.544;2022-07-09T06:32:18;0;0;
46573;PMS5003;32299;53.366;-1.544;2022-07-09T06:34:45;3;0;
46573;PMS5003;32299;53.366;-1.544;2022-07-09T06:37:12;0;0;
46573;PMS5003;32299;53.366;-1.544;2022-07-09T06:39:39;0;0;
46573;PMS5003;32299;53.366;-1.544;2022-07-09T06:42:06;1;1;
46573;PMS5003;32299;53.366;-1.544;2022-07-09T06:44:34;0;0;
46573;PMS5003;32299;53.366;-1.544;2022-07-09T06:47:01;0;0;
46573;PMS5003;32299;53.366;-1.544;2022-07-09T06:49:29;1;1;
46573;PMS5003;32299;53.366;-1.544;2022-07-09T06:51:57;0;0;
46573;PMS5003;32299;53.366;-1.544;2022-07-09T06:54:25;0;0;
46573;PMS5003;32299;53.366;-1.544;2022-07-09T06:56:53;1;1;
46573;PMS5003;32299;53.366;-1.544;2022-07-09T06:59:20;1;1;
46573;PMS5003;32299;53.366;-1.544;2022-07-09T07:01:47;0;0;
46573;PMS5003;32299;53.366;-1.544;2022-07-09T07:04:15;0;0;
46573;PMS5003;32299;53.366;-1.544;2022-07-09T07:06:42;0;0;
46573;PMS5003;32299;53.366;-1.544;2022-07-09T07:09:09;0;0;
46573;PMS5003;32299;53.366;-1.544;2022-07-09T07:11:36;0;0;
46573;PMS5003;32299;53.366;-1.544;2022-07-09T07:14:03;1;1;
46573;PMS5003;32299;53.366;-1.544;2022-07-09T07:16:30;1;1;
46573;PMS5003;32299;53.366;-1.544;2022-07-09T07:18:57;1;1;
46573;PMS5003;32299;53.366;-1.544;2022-07-09T07:21:24;1;1;
46573;PMS5003;32299;53.366;-1.544;2022-07-09T07:23:51;0;0;
46573;PMS5003;32299;53.366;-1.544;2022-07-09T07:26:18;2;1;
46573;PMS5003;32299;53.366;-1.544;2022-07-09T07:28:45;0;0;
46573;PMS5003;32299;53.366;-1.544;2022-07-09T07:31:12;1;1;
46573;PMS5003;32299;53.366;-1.544;2022-07-09T07:33:39;1;1;
46573;PMS5003;32299;53.366;-1.544;2022-07-09T07:36:07;2;2;
46573;PMS5003;32299;53.366;-1.544;2022-07-09T07:38:34;1;1;
46573;PMS5003;32299;53.366;-1.544;2022-07-09T07:41:02;0;0;
46573;PMS5003;32299;53.366;-1.544;2022-07-09T07:43:29;0;0;
46573;PMS5003;32299;53.366;-1.544;2022-07-09T07:45:56;1;1;
46573;PMS5003;32299;53.366;-1.544;2022-07-09T07:48:23;3;1;
46573;PMS5003;32299;53.366;-1.544;2022-07-09T07:50:50;1;1;
46573;PMS5003;32299;53.366;-1.544;2022-07-09T07:53:17;1;1;
46573;PMS5003;32299;53.366;-1.544;2022-07-09T07:55:44;4;1;
46573;PMS5003;32299;53.366;-1.544;2022-07-09T07:58:12;2;1;
46573;PMS5003;32299;53.366;-1.544;2022-07-09T08:00:45;1;1;
46573;PMS5003;32299;53.366;-1.544;2022-07-09T08:03:17;2;2;
46573;PMS5003;32299;53.366;-1.544;2022-07-09T08:05:45;1;1;
46573;PMS5003;32299;53.366;-1.544;2022-07-09T08:08:12;0;0;
46573;PMS5003;32299;53.366;-1.544;2022-07-09T08:10:40;0;0;
46573;PMS5003;32299;53.366;-1.544;2022-07-09T08:13:07;0;0;
46573;PMS5003;32299;53.366;-1.544;2022-07-09T08:15:34;3;1;
46573;PMS5003;32299;53.366;-1.544;2022-07-09T08:18:01;3;1;
46573;PMS5003;32299;53.366;-1.544;2022-07-09T08:20:28;1;1;
46573;PMS5003;32299;53.366;-1.544;2022-07-09T08:22:55;3;1;
46573;PMS5003;32299;53.366;-1.544;2022-07-09T08:25:22;0;0;
46573;PMS5003;32299;53.366;-1.544;2022-07-09T08:27:49;2;1;
46573;PMS5003;32299;53.366;-1.544;2022-07-09T08:30:16;1;1;
46573;PMS5003;32299;53.366;-1.544;2022-07-09T08:32:43;2;0;
46573;PMS5003;32299;53.366;-1.544;2022-07-09T08:35:10;0;0;
46573;PMS5003;32299;53.366;-1.544;2022-07-09T08:37:37;1;1;
46573;PMS5003;32299;53.366;-1.544;2022-07-09T08:40:04;0;0;
46573;PMS5003;32299;53.366;-1.544;2022-07-09T08:42:32;1;1;
46573;PMS5003;32299;53.366;-1.544;2022-07-09T08:44:59;0;0;
46573;PMS5003;32299;53.366;-1.544;2022-07-09T08:47:28;2;1;
46573;PMS5003;32299;53.366;-1.544;2022-07-09T08:49:57;0;0;
46573;PMS5003;32299;53.366;-1.544;2022-07-09T08:52:27;0;0;
46573;PMS5003;32299;53.366;-1.544;2022-07-09T08:54:55;0;0;
46573;PMS5003;32299;53.366;-1.544;2022-07-09T08:57:22;0;0;
46573;PMS5003;32299;53.366;-1.544;2022-07-09T08:59:49;1;1;
46573;PMS5003;32299;53.366;-1.544;2022-07-09T09:02:16;1;1;
46573;PMS5003;32299;53.366;-1.544;2022-07-09T09:04:43;1;1;
46573;PMS5003;32299;53.366;-1.544;2022-07-09T09:07:15;1;1;
46573;PMS5003;32299;53.366;-1.544;2022-07-09T09:09:44;1;1;
46573;PMS5003;32299;53.366;-1.544;2022-07-09T09:12:12;0;0;
46573;PMS5003;32299;53.366;-1.544;2022-07-09T09:14:39;0;0;
46573;PMS5003;32299;53.366;-1.544;2022-07-09T09:17:14;1;1;
46573;PMS5003;32299;53.366;-1.544;2022-07-09T09:19:42;0;0;
46573;PMS5003;32299;53.366;-1.544;2022-07-09T09:22:09;0;0;
46573;PMS5003;32299;53.366;-1.544;2022-07-09T09:24:36;2;1;
46573;PMS5003;32299;53.366;-1.544;2022-07-09T09:27:04;1;0;
46573;PMS5003;32299;53.366;-1.544;2022-07-09T09:29:32;1;1;
46573;PMS5003;32299;53.366;-1.544;2022-07-09T09:32:08;1;0;
46573;PMS5003;32299;53.366;-1.544;2022-07-09T09:34:36;2;1;
46573;PMS5003;32299;53.366;-1.544;2022-07-09T09:37:04;0;0;
46573;PMS5003;32299;53.366;-1.544;2022-07-09T09:39:31;1;1;
46573;PMS5003;32299;53.366;-1.544;2022-07-09T09:41:58;2;1;
46573;PMS5003;32299;53.366;-1.544;2022-07-09T09:44:27;0;0;
46573;PMS5003;32299;53.366;-1.544;2022-07-09T09:46:56;0;0;
46573;PMS5003;32299;53.366;-1.544;2022-07-09T09:49:24;1;1;
46573;PMS5003;32299;53.366;-1.544;2022-07-09T09:51:51;0;0;
46573;PMS5003;32299;53.366;-1.544;2022-07-09T09:54:26;1;1;
46573;PMS5003;32299;53.366;-1.544;2022-07-09T09:56:55;0;0;
46573;PMS5003;32299;53.366;-1.544;2022-07-09T09:59:24;1;1;
46573;PMS5003;32299;53.366;-1.544;2022-07-09T10:01:52;1;1;
46573;PMS5003;32299;53.366;-1.544;2022-07-09T10:04:19;0;0;
46573;PMS5003;32299;53.366;-1.544;2022-07-09T10:06:46;1;1;
46573;PMS5003;32299;53.366;-1.544;2022-07-09T10:09:14;1;0;
46573;PMS5003;32299;53.366;-1.544;2022-07-09T10:11:42;0;0;
46573;PMS5003;32299;53.366;-1.544;2022-07-09T10:14:18;1;1;
46573;PMS5003;32299;53.366;-1.544;2022-07-09T10:17:08;0;0;
46573;PMS5003;32299;53.366;-1.544;2022-07-09T10:19:36;3;0;
46573;PMS5003;32299;53.366;-1.544;2022-07-09T10:22:04;1;1;
46573;PMS5003;32299;53.366;-1.544;2022-07-09T10:24:33;1;1;
46573;PMS5003;32299;53.366;-1.544;2022-07-09T10:27:02;1;1;
46573;PMS5003;32299;53.366;-1.544;2022-07-09T10:29:31;1;1;
46573;PMS5003;32299;53.366;-1.544;2022-07-09T10:32:04;1;1;
46573;PMS5003;32299;53.366;-1.544;2022-07-09T10:34:52;0;0;
46573;PMS5003;32299;53.366;-1.544;2022-07-09T10:37:31;1;1;
46573;PMS5003;32299;53.366;-1.544;2022-07-09T10:40:07;0;0;
46573;PMS5003;32299;53.366;-1.544;2022-07-09T10:42:36;1;1;
46573;PMS5003;32299;53.366;-1.544;2022-07-09T10:45:14;1;1;
46573;PMS5003;32299;53.366;-1.544;2022-07-09T10:47:50;3;0;
46573;PMS5003;32299;53.366;-1.544;2022-07-09T10:50:20;1;1;
46573;PMS5003;32299;53.366;-1.544;2022-07-09T10:52:48;4;1;
46573;PMS5003;32299;53.366;-1.544;2022-07-09T10:55:16;1;1;
46573;PMS5003;32299;53.366;-1.544;2022-07-09T10:57:45;0;0;
46573;PMS5003;32299;53.366;-1.544;2022-07-09T11:00:14;0;0;
46573;PMS5003;32299;53.366;-1.544;2022-07-09T11:02:58;3;0;
46573;PMS5003;32299;53.366;-1.544;2022-07-09T11:05:26;1;1;
46573;PMS5003;32299;53.366;-1.544;2022-07-09T11:07:56;1;1;
46573;PMS5003;32299;53.366;-1.544;2022-07-09T11:10:25;4;1;
46573;PMS5003;32299;53.366;-1.544;2022-07-09T11:12:53;1;1;
46573;PMS5003;32299;53.366;-1.544;2022-07-09T11:15:21;0;0;
46573;PMS5003;32299;53.366;-1.544;2022-07-09T11:18:05;1;1;
46573;PMS5003;32299;53.366;-1.544;2022-07-09T11:20:37;0;0;
46573;PMS5003;32299;53.366;-1.544;2022-07-09T11:23:05;1;1;
46573;PMS5003;32299;53.366;-1.544;2022-07-09T11:25:34;0;0;
46573;PMS5003;32299;53.366;-1.544;2022-07-09T11:28:03;2;1;
46573;PMS5003;32299;53.366;-1.544;2022-07-09T11:30:31;0;0;
46573;PMS5003;32299;53.366;-1.544;2022-07-09T11:32:58;3;0;
46573;PMS5003;32299;53.366;-1.544;2022-07-09T11:35:26;2;2;
46573;PMS5003;32299;53.366;-1.544;2022-07-09T11:37:54;0;0;
46573;PMS5003;32299;53.366;-1.544;2022-07-09T11:40:23;0;0;
46573;PMS5003;32299;53.366;-1.544;2022-07-09T11:42:50;2;2;
46573;PMS5003;32299;53.366;-1.544;2022-07-09T11:45:21;1;1;
46573;PMS5003;32299;53.366;-1.544;2022-07-09T11:47:50;2;0;
46573;PMS5003;32299;53.366;-1.544;2022-07-09T11:50:30;1;1;
46573;PMS5003;32299;53.366;-1.544;2022-07-09T11:52:57;2;1;
46573;PMS5003;32299;53.366;-1.544;2022-07-09T11:55:28;0;0;
46573;PMS5003;32299;53.366;-1.544;2022-07-09T11:57:57;1;1;
46573;PMS5003;32299;53.366;-1.544;2022-07-09T12:00:26;3;2;
46573;PMS5003;32299;53.366;-1.544;2022-07-09T12:02:55;1;0;
46573;PMS5003;32299;53.366;-1.544;2022-07-09T12:05:24;0;0;
46573;PMS5003;32299;53.366;-1.544;2022-07-09T12:07:54;1;1;
46573;PMS5003;32299;53.366;-1.544;2022-07-09T12:10:26;1;1;
46573;PMS5003;32299;53.366;-1.544;2022-07-09T12:12:55;1;1;
46573;PMS5003;32299;53.366;-1.544;2022-07-09T12:15:22;2;1;
46573;PMS5003;32299;53.366;-1.544;2022-07-09T12:17:50;4;1;
46573;PMS5003;32299;53.366;-1.544;2022-07-09T12:20:19;1;0;
46573;PMS5003;32299;53.366;-1.544;2022-07-09T12:22:46;1;1;
46573;PMS5003;32299;53.366;-1.544;2022-07-09T12:25:13;2;2;
46573;PMS5003;32299;53.366;-1.544;2022-07-09T12:27:40;1;1;
46573;PMS5003;32299;53.366;-1.544;2022-07-09T12:30:08;2;2;
46573;PMS5003;32299;53.366;-1.544;2022-07-09T12:32:36;0;0;
46573;PMS5003;32299;53.366;-1.544;2022-07-09T12:35:03;2;1;
46573;PMS5003;32299;53.366;-1.544;2022-07-09T12:37:32;2;2;
46573;PMS5003;32299;53.366;-1.544;2022-07-09T12:39:59;2;1;
46573;PMS5003;32299;53.366;-1.544;2022-07-09T12:42:27;1;1;
46573;PMS5003;32299;53.366;-1.544;2022-07-09T12:44:54;1;0;
46573;PMS5003;32299;53.366;-1.544;2022-07-09T12:47:21;2;1;
46573;PMS5003;32299;53.366;-1.544;2022-07-09T12:49:48;1;1;
46573;PMS5003;32299;53.366;-1.544;2022-07-09T12:52:16;0;0;
46573;PMS5003;32299;53.366;-1.544;2022-07-09T12:54:44;1;1;
46573;PMS5003;32299;53.366;-1.544;2022-07-09T12:57:11;1;1;
46573;PMS5003;32299;53.366;-1.544;2022-07-09T12:59:39;3;1;
46573;PMS5003;32299;53.366;-1.544;2022-07-09T13:02:06;1;1;
46573;PMS5003;32299;53.366;-1.544;2022-07-09T13:04:34;1;1;
46573;PMS5003;32299;53.366;-1.544;2022-07-09T13:07:02;1;1;
46573;PMS5003;32299;53.366;-1.544;2022-07-09T13:09:29;1;1;
46573;PMS5003;32299;53.366;-1.544;2022-07-09T13:11:56;2;2;
46573;PMS5003;32299;53.366;-1.544;2022-07-09T13:14:23;3;2;
46573;PMS5003;32299;53.366;-1.544;2022-07-09T13:16:50;2;2;
46573;PMS5003;32299;53.366;-1.544;2022-07-09T13:19:17;1;1;
46573;PMS5003;32299;53.366;-1.544;2022-07-09T13:21:44;1;1;
46573;PMS5003;32299;53.366;-1.544;2022-07-09T13:24:11;2;2;
46573;PMS5003;32299;53.366;-1.544;2022-07-09T13:26:38;2;0;
46573;PMS5003;32299;53.366;-1.544;2022-07-09T13:29:06;0;0;
46573;PMS5003;32299;53.366;-1.544;2022-07-09T13:31:33;3;1;
46573;PMS5003;32299;53.366;-1.544;2022-07-09T13:34:00;3;2;
46573;PMS5003;32299;53.366;-1.544;2022-07-09T13:36:27;2;2;
46573;PMS5003;32299;53.366;-1.544;2022-07-09T13:38:55;4;1;
46573;PMS5003;32299;53.366;-1.544;2022-07-09T13:41:22;1;1;
46573;PMS5003;32299;53.366;-1.544;2022-07-09T13:43:49;2;1;
46573;PMS5003;32299;53.366;-1.544;2022-07-09T13:46:16;3;1;
46573;PMS5003;32299;53.366;-1.544;2022-07-09T13:48:43;1;1;
46573;PMS5003;32299;53.366;-1.544;2022-07-09T13:51:10;0;0;
46573;PMS5003;32299;53.366;-1.544;2022-07-09T13:53:37;0;0;
46573;PMS5003;32299;53.366;-1.544;2022-07-09T13:56:04;0;0;
46573;PMS5003;32299;53.366;-1.544;2022-07-09T13:58:32;3;3;
46573;PMS5003;32299;53.366;-1.544;2022-07-09T14:00:59;1;1;
46573;PMS5003;32299;53.366;-1.544;2022-07-09T14:03:26;2;2;
46573;PMS5003;32299;53.366;-1.544;2022-07-09T14:05:53;2;2;
46573;PMS5003;32299;53.366;-1.544;2022-07-09T14:08:20;5;2;
46573;PMS5003;32299;53.366;-1.544;2022-07-09T14:10:47;1;1;
46573;PMS5003;32299;53.366;-1.544;2022-07-09T14:13:14;2;0;
46573;PMS5003;32299;53.366;-1.544;2022-07-09T14:15:41;3;3;
46573;PMS5003;32299;53.366;-1.544;2022-07-09T14:18:08;3;2;
46573;PMS5003;32299;53.366;-1.544;2022-07-09T14:20:35;2;2;
46573;PMS5003;32299;53.366;-1.544;2022-07-09T14:23:02;3;3;
46573;PMS5003;32299;53.366;-1.544;2022-07-09T14:25:29;2;1;
46573;PMS5003;32299;53.366;-1.544;2022-07-09T14:27:56;2;2;
46573;PMS5003;32299;53.366;-1.544;2022-07-09T14:30:23;5;2;
46573;PMS5003;32299;53.366;-1.544;2022-07-09T14:32:50;1;1;
46573;PMS5003;32299;53.366;-1.544;2022-07-09T14:35:17;3;2;
46573;PMS5003;32299;53.366;-1.544;2022-07-09T14:37:44;1;1;
46573;PMS5003;32299;53.366;-1.544;2022-07-09T14:40:11;2;2;
46573;PMS5003;32299;53.366;-1.544;2022-07-09T14:42:38;2;2;
46573;PMS5003;32299;53.366;-1.544;2022-07-09T14:45:06;2;2;
46573;PMS5003;32299;53.366;-1.544;2022-07-09T14:47:34;2;2;
46573;PMS5003;32299;53.366;-1.544;2022-07-09T14:50:01;2;2;
46573;PMS5003;32299;53.366;-1.544;2022-07-09T14:52:29;4;2;
46573;PMS5003;32299;53.366;-1.544;2022-07-09T14:54:56;3;3;
46573;PMS5003;32299;53.366;-1.544;2022-07-09T14:57:23;4;3;
46573;PMS5003;32299;53.366;-1.544;2022-07-09T14:59:50;2;2;
46573;PMS5003;32299;53.366;-1.544;2022-07-09T15:02:17;4;4;
46573;PMS5003;32299;53.366;-1.544;2022-07-09T15:04:45;4;2;
46573;PMS5003;32299;53.366;-1.544;2022-07-09T15:07:12;1;1;
46573;PMS5003;32299;53.366;-1.544;2022-07-09T15:09:39;4;3;
46573;PMS5003;32299;53.366;-1.544;2022-07-09T15:12:06;2;2;
46573;PMS5003;32299;53.366;-1.544;2022-07-09T15:14:34;4;4;
46573;PMS5003;32299;53.366;-1.544;2022-07-09T15:17:01;2;2;
46573;PMS5003;32299;53.366;-1.544;2022-07-09T15:19:29;5;5;
46573;PMS5003;32299;53.366;-1.544;2022-07-09T15:21:56;4;3;
46573;PMS5003;32299;53.366;-1.544;2022-07-09T15:24:23;2;2;
46573;PMS5003;32299;53.366;-1.544;2022-07-09T15:26:50;2;2;
46573;PMS5003;32299;53.366;-1.544;2022-07-09T15:29:23;2;2;
46573;PMS5003;32299;53.366;-1.544;2022-07-09T15:31:50;4;2;
46573;PMS5003;32299;53.366;-1.544;2022-07-09T15:34:17;3;3;
46573;PMS5003;32299;53.366;-1.544;2022-07-09T15:36:45;4;3;
46573;PMS5003;32299;53.366;-1.544;2022-07-09T15:39:17;5;3;
46573;PMS5003;32299;53.366;-1.544;2022-07-09T15:41:45;5;3;
46573;PMS5003;32299;53.366;-1.544;2022-07-09T15:44:12;4;4;
46573;PMS5003;32299;53.366;-1.544;2022-07-09T15:46:39;2;2;
46573;PMS5003;32299;53.366;-1.544;2022-07-09T15:49:06;4;4;
46573;PMS5003;32299;53.366;-1.544;2022-07-09T15:51:33;7;6;
46573;PMS5003;32299;53.366;-1.544;2022-07-09T15:54:00;6;4;
46573;PMS5003;32299;53.366;-1.544;2022-07-09T15:56:27;3;3;
46573;PMS5003;32299;53.366;-1.544;2022-07-09T15:58:54;5;5;
46573;PMS5003;32299;53.366;-1.544;2022-07-09T16:01:21;4;4;
46573;PMS5003;32299;53.366;-1.544;2022-07-09T16:03:48;3;3;
46573;PMS5003;32299;53.366;-1.544;2022-07-09T16:06:15;3;3;
46573;PMS5003;32299;53.366;-1.544;2022-07-09T16:08:42;4;4;
46573;PMS5003;32299;53.366;-1.544;2022-07-09T16:11:09;4;3;
46573;PMS5003;32299;53.366;-1.544;2022-07-09T16:13:36;2;2;
46573;PMS5003;32299;53.366;-1.544;2022-07-09T16:16:03;3;3;
46573;PMS5003;32299;53.366;-1.544;2022-07-09T16:18:31;4;4;
46573;PMS5003;32299;53.366;-1.544;2022-07-09T16:20:58;3;3;
46573;PMS5003;32299;53.366;-1.544;2022-07-09T16:23:25;2;2;
46573;PMS5003;32299;53.366;-1.544;2022-07-09T16:25:52;1;1;
46573;PMS5003;32299;53.366;-1.544;2022-07-09T16:28:19;5;4;
46573;PMS5003;32299;53.366;-1.544;2022-07-09T16:30:46;4;3;
46573;PMS5003;32299;53.366;-1.544;2022-07-09T16:33:13;4;4;
46573;PMS5003;32299;53.366;-1.544;2022-07-09T16:35:40;3;3;